sensor_id;sensor_type;location;lat;lon;timestamp;temperature;humidity
5850;DHT22;2951;47.712;9.400;2023-04-24T00:01:35;11.20;99.90
5850;DHT22;2951;47.712;9.400;2023-04-24T00:04:03;11.10;99.90
5850;DHT22;2951;47.712;9.400;2023-04-24T00:06:30;11.00;99.90
5850;DHT22;2951;47.712;9.400;2023-04-24T00:09:00;10.90;99.90
5850;DHT22;2951;47.712;9.400;2023-04-24T00:11:27;11.00;99.90
5850;DHT22;2951;47.712;9.400;2023-04-24T00:13:54;10.90;99.90
5850;DHT22;2951;47.712;9.400;2023-04-24T00:16:20;11.00;99.90
5850;DHT22;2951;47.712;9.400;2023-04-24T00:18:47;11.10;99.90
5850;DHT22;2951;47.712;9.400;2023-04-24T00:21:19;11.10;99.90
5850;DHT22;2951;47.712;9.400;2023-04-24T00:23:45;11.10;99.90
5850;DHT22;2951;47.712;9.400;2023-04-24T00:26:12;11.10;99.90
5850;DHT22;2951;47.712;9.400;2023-04-24T00:28:39;11.10;99.90
5850;DHT22;2951;47.712;9.400;2023-04-24T00:31:06;11.10;99.90
5850;DHT22;2951;47.712;9.400;2023-04-24T00:33:33;11.00;99.90
5850;DHT22;2951;47.712;9.400;2023-04-24T00:35:59;10.90;99.90
5850;DHT22;2951;47.712;9.400;2023-04-24T00:38:26;10.90;99.90
5850;DHT22;2951;47.712;9.400;2023-04-24T00:40:53;10.90;99.90
5850;DHT22;2951;47.712;9.400;2023-04-24T00:43:20;10.90;99.90
5850;DHT22;2951;47.712;9.400;2023-04-24T00:45:47;11.00;99.90
5850;DHT22;2951;47.712;9.400;2023-04-24T00:48:14;11.00;99.90
5850;DHT22;2951;47.712;9.400;2023-04-24T00:50:41;11.00;99.90
5850;DHT22;2951;47.712;9.400;2023-04-24T00:53:08;11.00;99.90
5850;DHT22;2951;47.712;9.400;2023-04-24T00:55:34;11.10;99.90
5850;DHT22;2951;47.712;9.400;2023-04-24T00:58:04;11.00;99.90
5850;DHT22;2951;47.712;9.400;2023-04-24T01:00:30;11.00;99.90
5850;DHT22;2951;47.712;9.400;2023-04-24T01:02:59;11.00;99.90
5850;DHT22;2951;47.712;9.400;2023-04-24T01:05:26;11.00;99.90
5850;DHT22;2951;47.712;9.400;2023-04-24T01:07:52;11.00;99.90
5850;DHT22;2951;47.712;9.400;2023-04-24T01:10:19;11.00;99.90
5850;DHT22;2951;47.712;9.400;2023-04-24T01:12:46;11.10;99.90
5850;DHT22;2951;47.712;9.400;2023-04-24T01:15:13;11.20;99.90
5850;DHT22;2951;47.712;9.400;2023-04-24T01:17:40;11.10;99.90
5850;DHT22;2951;47.712;9.400;2023-04-24T01:20:06;11.00;99.90
5850;DHT22;2951;47.712;9.400;2023-04-24T01:22:33;10.90;99.90
5850;DHT22;2951;47.712;9.400;2023-04-24T01:25:01;10.80;99.90
5850;DHT22;2951;47.712;9.400;2023-04-24T01:27:28;10.70;99.90
5850;DHT22;2951;47.712;9.400;2023-04-24T01:29:54;10.70;99.90
5850;DHT22;2951;47.712;9.400;2023-04-24T01:32:23;10.80;99.90
5850;DHT22;2951;47.712;9.400;2023-04-24T01:34:51;10.80;99.90
5850;DHT22;2951;47.712;9.400;2023-04-24T01:37:18;10.80;99.90
5850;DHT22;2951;47.712;9.400;2023-04-24T01:39:44;10.80;99.90
5850;DHT22;2951;47.712;9.400;2023-04-24T01:42:11;10.80;99.90
5850;DHT22;2951;47.712;9.400;2023-04-24T01:44:38;10.80;99.90
5850;DHT22;2951;47.712;9.400;2023-04-24T01:47:06;10.80;99.90
5850;DHT22;2951;47.712;9.400;2023-04-24T01:49:33;10.80;99.90
5850;DHT22;2951;47.712;9.400;2023-04-24T01:51:59;10.80;99.90
5850;DHT22;2951;47.712;9.400;2023-04-24T01:54:26;10.80;99.90
5850;DHT22;2951;47.712;9.400;2023-04-24T01:56:53;10.70;99.90
5850;DHT22;2951;47.712;9.400;2023-04-24T01:59:20;10.70;99.90
5850;DHT22;2951;47.712;9.400;2023-04-24T02:01:47;10.70;99.90
5850;DHT22;2951;47.712;9.400;2023-04-24T02:04:14;10.60;99.90
5850;DHT22;2951;47.712;9.400;2023-04-24T02:06:41;10.60;99.90
5850;DHT22;2951;47.712;9.400;2023-04-24T02:09:08;10.50;99.90
5850;DHT22;2951;47.712;9.400;2023-04-24T02:11:35;10.60;99.90
5850;DHT22;2951;47.712;9.400;2023-04-24T02:14:02;10.60;99.90
5850;DHT22;2951;47.712;9.400;2023-04-24T02:16:28;10.50;99.90
5850;DHT22;2951;47.712;9.400;2023-04-24T02:18:59;10.40;99.90
5850;DHT22;2951;47.712;9.400;2023-04-24T02:21:26;10.50;99.90
5850;DHT22;2951;47.712;9.400;2023-04-24T02:23:54;10.50;99.90
5850;DHT22;2951;47.712;9.400;2023-04-24T02:26:20;10.50;99.90
5850;DHT22;2951;47.712;9.400;2023-04-24T02:28:47;10.40;99.90
5850;DHT22;2951;47.712;9.400;2023-04-24T02:31:14;10.40;99.90
5850;DHT22;2951;47.712;9.400;2023-04-24T02:33:41;10.30;99.90
5850;DHT22;2951;47.712;9.400;2023-04-24T02:36:08;10.40;99.90
5850;DHT22;2951;47.712;9.400;2023-04-24T02:38:34;10.30;99.90
5850;DHT22;2951;47.712;9.400;2023-04-24T02:41:01;10.40;99.90
5850;DHT22;2951;47.712;9.400;2023-04-24T02:43:30;10.40;99.90
5850;DHT22;2951;47.712;9.400;2023-04-24T02:45:57;10.40;99.90
5850;DHT22;2951;47.712;9.400;2023-04-24T02:48:23;10.40;99.90
5850;DHT22;2951;47.712;9.400;2023-04-24T02:50:50;10.40;99.90
5850;DHT22;2951;47.712;9.400;2023-04-24T02:53:17;10.30;99.90
5850;DHT22;2951;47.712;9.400;2023-04-24T02:55:44;10.30;99.90
5850;DHT22;2951;47.712;9.400;2023-04-24T02:58:11;10.30;99.90
5850;DHT22;2951;47.712;9.400;2023-04-24T03:00:39;10.30;99.90
5850;DHT22;2951;47.712;9.400;2023-04-24T03:03:06;10.30;99.90
5850;DHT22;2951;47.712;9.400;2023-04-24T03:05:33;10.20;99.90
5850;DHT22;2951;47.712;9.400;2023-04-24T03:08:00;10.20;99.90
5850;DHT22;2951;47.712;9.400;2023-04-24T03:10:27;10.20;99.90
5850;DHT22;2951;47.712;9.400;2023-04-24T03:12:53;10.20;99.90
5850;DHT22;2951;47.712;9.400;2023-04-24T03:15:21;10.20;99.90
5850;DHT22;2951;47.712;9.400;2023-04-24T03:17:48;10.20;99.90
5850;DHT22;2951;47.712;9.400;2023-04-24T03:20:14;10.10;99.90
5850;DHT22;2951;47.712;9.400;2023-04-24T03:22:41;10.10;99.90
5850;DHT22;2951;47.712;9.400;2023-04-24T03:25:08;10.10;99.90
5850;DHT22;2951;47.712;9.400;2023-04-24T03:27:35;10.10;99.90
5850;DHT22;2951;47.712;9.400;2023-04-24T03:30:02;10.10;99.90
5850;DHT22;2951;47.712;9.400;2023-04-24T03:32:29;10.10;99.90
5850;DHT22;2951;47.712;9.400;2023-04-24T03:35:00;10.10;99.90
5850;DHT22;2951;47.712;9.400;2023-04-24T03:37:27;10.10;99.90
5850;DHT22;2951;47.712;9.400;2023-04-24T03:39:53;10.10;99.90
5850;DHT22;2951;47.712;9.400;2023-04-24T03:42:20;10.00;99.90
5850;DHT22;2951;47.712;9.400;2023-04-24T03:44:47;10.00;99.90
5850;DHT22;2951;47.712;9.400;2023-04-24T03:47:14;9.90;99.90
5850;DHT22;2951;47.712;9.400;2023-04-24T03:49:40;9.80;99.90
5850;DHT22;2951;47.712;9.400;2023-04-24T03:52:07;9.90;99.90
5850;DHT22;2951;47.712;9.400;2023-04-24T03:54:34;9.90;99.90
5850;DHT22;2951;47.712;9.400;2023-04-24T03:57:01;9.80;99.90
5850;DHT22;2951;47.712;9.400;2023-04-24T03:59:28;9.80;99.90
5850;DHT22;2951;47.712;9.400;2023-04-24T04:01:54;9.80;99.90
5850;DHT22;2951;47.712;9.400;2023-04-24T04:04:21;9.80;99.90
5850;DHT22;2951;47.712;9.400;2023-04-24T04:06:48;9.80;99.90
5850;DHT22;2951;47.712;9.400;2023-04-24T04:09:15;9.80;99.90
5850;DHT22;2951;47.712;9.400;2023-04-24T04:11:41;9.80;99.90
5850;DHT22;2951;47.712;9.400;2023-04-24T04:14:08;9.80;99.90
5850;DHT22;2951;47.712;9.400;2023-04-24T04:16:35;9.80;99.90
5850;DHT22;2951;47.712;9.400;2023-04-24T04:19:03;9.80;99.90
5850;DHT22;2951;47.712;9.400;2023-04-24T04:21:29;9.80;99.90
5850;DHT22;2951;47.712;9.400;2023-04-24T04:23:57;9.80;99.90
5850;DHT22;2951;47.712;9.400;2023-04-24T04:26:24;9.70;99.90
5850;DHT22;2951;47.712;9.400;2023-04-24T04:28:52;9.80;99.90
5850;DHT22;2951;47.712;9.400;2023-04-24T04:31:19;9.80;99.90
5850;DHT22;2951;47.712;9.400;2023-04-24T04:33:46;9.80;99.90
5850;DHT22;2951;47.712;9.400;2023-04-24T04:36:13;9.80;99.90
5850;DHT22;2951;47.712;9.400;2023-04-24T04:38:39;9.80;99.90
5850;DHT22;2951;47.712;9.400;2023-04-24T04:41:08;9.90;99.90
5850;DHT22;2951;47.712;9.400;2023-04-24T04:43:35;9.90;99.90
5850;DHT22;2951;47.712;9.400;2023-04-24T04:46:02;9.90;99.90
5850;DHT22;2951;47.712;9.400;2023-04-24T04:48:29;9.90;99.90
5850;DHT22;2951;47.712;9.400;2023-04-24T04:50:57;10.00;99.90
5850;DHT22;2951;47.712;9.400;2023-04-24T04:53:24;10.00;99.90
5850;DHT22;2951;47.712;9.400;2023-04-24T04:55:51;9.90;99.90
5850;DHT22;2951;47.712;9.400;2023-04-24T04:58:18;9.90;99.90
5850;DHT22;2951;47.712;9.400;2023-04-24T05:00:45;9.90;99.90
5850;DHT22;2951;47.712;9.400;2023-04-24T05:03:12;9.90;99.90
5850;DHT22;2951;47.712;9.400;2023-04-24T05:05:44;9.90;99.90
5850;DHT22;2951;47.712;9.400;2023-04-24T05:08:11;9.90;99.90
5850;DHT22;2951;47.712;9.400;2023-04-24T05:10:51;10.00;99.90
5850;DHT22;2951;47.712;9.400;2023-04-24T05:13:18;10.10;99.90
5850;DHT22;2951;47.712;9.400;2023-04-24T05:15:54;10.10;99.90
5850;DHT22;2951;47.712;9.400;2023-04-24T05:18:20;10.10;99.90
5850;DHT22;2951;47.712;9.400;2023-04-24T05:20:47;10.10;99.90
5850;DHT22;2951;47.712;9.400;2023-04-24T05:23:14;10.10;99.90
5850;DHT22;2951;47.712;9.400;2023-04-24T05:25:40;10.10;99.90
5850;DHT22;2951;47.712;9.400;2023-04-24T05:28:07;10.10;99.90
5850;DHT22;2951;47.712;9.400;2023-04-24T05:30:34;10.20;99.90
5850;DHT22;2951;47.712;9.400;2023-04-24T05:33:01;10.10;99.90
5850;DHT22;2951;47.712;9.400;2023-04-24T05:35:28;10.10;99.90
5850;DHT22;2951;47.712;9.400;2023-04-24T05:37:54;10.10;99.90
5850;DHT22;2951;47.712;9.400;2023-04-24T05:40:21;10.10;99.90
5850;DHT22;2951;47.712;9.400;2023-04-24T05:42:48;10.10;99.90
5850;DHT22;2951;47.712;9.400;2023-04-24T05:45:14;10.00;99.90
5850;DHT22;2951;47.712;9.400;2023-04-24T05:47:43;10.10;99.90
5850;DHT22;2951;47.712;9.400;2023-04-24T05:50:10;10.00;99.90
5850;DHT22;2951;47.712;9.400;2023-04-24T05:52:37;9.90;99.90
5850;DHT22;2951;47.712;9.400;2023-04-24T05:55:04;9.90;99.90
5850;DHT22;2951;47.712;9.400;2023-04-24T05:57:30;9.90;99.90
5850;DHT22;2951;47.712;9.400;2023-04-24T05:59:57;9.80;99.90
5850;DHT22;2951;47.712;9.400;2023-04-24T06:02:24;9.70;99.90
5850;DHT22;2951;47.712;9.400;2023-04-24T06:04:50;9.70;99.90
5850;DHT22;2951;47.712;9.400;2023-04-24T06:07:17;9.70;99.90
5850;DHT22;2951;47.712;9.400;2023-04-24T06:09:44;9.80;99.90
5850;DHT22;2951;47.712;9.400;2023-04-24T06:12:11;9.80;99.90
5850;DHT22;2951;47.712;9.400;2023-04-24T06:14:38;10.00;99.90
5850;DHT22;2951;47.712;9.400;2023-04-24T06:17:04;10.00;99.90
5850;DHT22;2951;47.712;9.400;2023-04-24T06:19:31;10.00;99.90
5850;DHT22;2951;47.712;9.400;2023-04-24T06:21:57;10.10;99.90
5850;DHT22;2951;47.712;9.400;2023-04-24T06:24:27;10.20;99.90
5850;DHT22;2951;47.712;9.400;2023-04-24T06:26:54;10.30;99.90
5850;DHT22;2951;47.712;9.400;2023-04-24T06:29:21;10.40;99.90
5850;DHT22;2951;47.712;9.400;2023-04-24T06:31:48;10.40;99.90
5850;DHT22;2951;47.712;9.400;2023-04-24T06:34:14;10.60;99.90
5850;DHT22;2951;47.712;9.400;2023-04-24T06:36:41;10.70;99.90
5850;DHT22;2951;47.712;9.400;2023-04-24T06:39:08;11.00;99.90
5850;DHT22;2951;47.712;9.400;2023-04-24T06:41:35;11.00;99.90
5850;DHT22;2951;47.712;9.400;2023-04-24T06:44:02;10.80;99.90
5850;DHT22;2951;47.712;9.400;2023-04-24T06:46:28;10.80;99.90
5850;DHT22;2951;47.712;9.400;2023-04-24T06:48:56;10.70;99.90
5850;DHT22;2951;47.712;9.400;2023-04-24T06:51:23;10.50;99.90
5850;DHT22;2951;47.712;9.400;2023-04-24T06:53:51;10.50;99.90
5850;DHT22;2951;47.712;9.400;2023-04-24T06:56:17;10.40;99.90
5850;DHT22;2951;47.712;9.400;2023-04-24T06:58:44;10.60;99.90
5850;DHT22;2951;47.712;9.400;2023-04-24T07:01:11;10.60;99.90
5850;DHT22;2951;47.712;9.400;2023-04-24T07:03:38;10.60;99.90
5850;DHT22;2951;47.712;9.400;2023-04-24T07:06:05;10.70;99.90
5850;DHT22;2951;47.712;9.400;2023-04-24T07:08:32;10.70;99.90
5850;DHT22;2951;47.712;9.400;2023-04-24T07:10:59;10.80;99.90
5850;DHT22;2951;47.712;9.400;2023-04-24T07:13:26;10.70;99.90
5850;DHT22;2951;47.712;9.400;2023-04-24T07:15:53;10.90;99.90
5850;DHT22;2951;47.712;9.400;2023-04-24T07:18:21;11.10;99.90
5850;DHT22;2951;47.712;9.400;2023-04-24T07:20:48;11.40;99.90
5850;DHT22;2951;47.712;9.400;2023-04-24T07:23:17;11.60;99.90
5850;DHT22;2951;47.712;9.400;2023-04-24T07:25:43;11.70;99.90
5850;DHT22;2951;47.712;9.400;2023-04-24T07:28:10;11.50;99.90
5850;DHT22;2951;47.712;9.400;2023-04-24T07:30:37;11.30;99.90
5850;DHT22;2951;47.712;9.400;2023-04-24T07:33:04;11.30;99.90
5850;DHT22;2951;47.712;9.400;2023-04-24T07:35:31;11.00;99.90
5850;DHT22;2951;47.712;9.400;2023-04-24T07:37:57;10.90;99.90
5850;DHT22;2951;47.712;9.400;2023-04-24T07:40:24;11.00;99.90
5850;DHT22;2951;47.712;9.400;2023-04-24T07:42:51;11.00;99.90
5850;DHT22;2951;47.712;9.400;2023-04-24T07:45:17;11.00;99.90
5850;DHT22;2951;47.712;9.400;2023-04-24T07:47:44;11.00;99.90
5850;DHT22;2951;47.712;9.400;2023-04-24T07:50:12;11.10;99.90
5850;DHT22;2951;47.712;9.400;2023-04-24T07:52:39;11.10;99.90
5850;DHT22;2951;47.712;9.400;2023-04-24T07:55:06;11.20;99.90
5850;DHT22;2951;47.712;9.400;2023-04-24T07:57:33;11.40;99.90
5850;DHT22;2951;47.712;9.400;2023-04-24T08:00:00;11.40;99.90
5850;DHT22;2951;47.712;9.400;2023-04-24T08:02:27;11.60;99.90
5850;DHT22;2951;47.712;9.400;2023-04-24T08:04:53;11.60;99.90
5850;DHT22;2951;47.712;9.400;2023-04-24T08:07:21;11.50;99.90
5850;DHT22;2951;47.712;9.400;2023-04-24T08:09:48;11.60;99.90
5850;DHT22;2951;47.712;9.400;2023-04-24T08:12:15;11.50;99.90
5850;DHT22;2951;47.712;9.400;2023-04-24T08:14:41;11.60;99.90
5850;DHT22;2951;47.712;9.400;2023-04-24T08:17:08;11.90;99.90
5850;DHT22;2951;47.712;9.400;2023-04-24T08:19:35;12.30;99.90
5850;DHT22;2951;47.712;9.400;2023-04-24T08:22:02;12.40;99.90
5850;DHT22;2951;47.712;9.400;2023-04-24T08:24:30;12.40;99.90
5850;DHT22;2951;47.712;9.400;2023-04-24T08:26:57;12.00;99.90
5850;DHT22;2951;47.712;9.400;2023-04-24T08:29:24;12.00;99.90
5850;DHT22;2951;47.712;9.400;2023-04-24T08:31:51;11.80;99.90
5850;DHT22;2951;47.712;9.400;2023-04-24T08:34:18;11.80;99.90
5850;DHT22;2951;47.712;9.400;2023-04-24T08:36:45;11.60;99.90
5850;DHT22;2951;47.712;9.400;2023-04-24T08:39:13;11.50;99.90
5850;DHT22;2951;47.712;9.400;2023-04-24T08:41:41;11.60;99.90
5850;DHT22;2951;47.712;9.400;2023-04-24T08:44:09;11.60;99.90
5850;DHT22;2951;47.712;9.400;2023-04-24T08:46:37;11.40;99.90
5850;DHT22;2951;47.712;9.400;2023-04-24T08:49:03;11.30;99.90
5850;DHT22;2951;47.712;9.400;2023-04-24T08:51:31;11.40;99.90
5850;DHT22;2951;47.712;9.400;2023-04-24T08:53:57;11.40;99.90
5850;DHT22;2951;47.712;9.400;2023-04-24T08:56:24;11.30;99.90
5850;DHT22;2951;47.712;9.400;2023-04-24T08:58:51;11.40;99.90
5850;DHT22;2951;47.712;9.400;2023-04-24T09:01:21;11.40;99.90
5850;DHT22;2951;47.712;9.400;2023-04-24T09:03:51;11.40;99.90
5850;DHT22;2951;47.712;9.400;2023-04-24T09:06:18;11.60;99.90
5850;DHT22;2951;47.712;9.400;2023-04-24T09:08:45;11.50;99.90
5850;DHT22;2951;47.712;9.400;2023-04-24T09:11:13;11.40;99.90
5850;DHT22;2951;47.712;9.400;2023-04-24T09:13:39;11.60;99.90
5850;DHT22;2951;47.712;9.400;2023-04-24T09:16:06;11.90;99.90
5850;DHT22;2951;47.712;9.400;2023-04-24T09:18:33;12.20;99.90
5850;DHT22;2951;47.712;9.400;2023-04-24T09:21:02;12.60;99.90
5850;DHT22;2951;47.712;9.400;2023-04-24T09:23:30;12.50;99.90
5850;DHT22;2951;47.712;9.400;2023-04-24T09:25:57;12.50;99.90
5850;DHT22;2951;47.712;9.400;2023-04-24T09:28:26;12.50;99.90
5850;DHT22;2951;47.712;9.400;2023-04-24T09:31:02;12.40;99.90
5850;DHT22;2951;47.712;9.400;2023-04-24T09:33:29;12.30;99.90
5850;DHT22;2951;47.712;9.400;2023-04-24T09:35:56;12.20;99.90
5850;DHT22;2951;47.712;9.400;2023-04-24T09:38:32;12.30;99.90
5850;DHT22;2951;47.712;9.400;2023-04-24T09:41:00;12.70;99.90
5850;DHT22;2951;47.712;9.400;2023-04-24T09:43:27;12.50;99.90
5850;DHT22;2951;47.712;9.400;2023-04-24T09:45:55;12.60;99.90
5850;DHT22;2951;47.712;9.400;2023-04-24T09:48:33;12.60;99.90
5850;DHT22;2951;47.712;9.400;2023-04-24T09:51:00;12.30;99.90
5850;DHT22;2951;47.712;9.400;2023-04-24T09:53:28;12.40;99.90
5850;DHT22;2951;47.712;9.400;2023-04-24T09:55:55;12.50;99.90
5850;DHT22;2951;47.712;9.400;2023-04-24T09:58:25;12.30;99.90
5850;DHT22;2951;47.712;9.400;2023-04-24T10:00:53;12.30;99.90
5850;DHT22;2951;47.712;9.400;2023-04-24T10:03:19;12.10;99.90
5850;DHT22;2951;47.712;9.400;2023-04-24T10:05:47;12.20;99.90
5850;DHT22;2951;47.712;9.400;2023-04-24T10:08:13;12.00;99.90
5850;DHT22;2951;47.712;9.400;2023-04-24T10:10:44;12.00;99.90
5850;DHT22;2951;47.712;9.400;2023-04-24T10:13:12;12.10;99.90
5850;DHT22;2951;47.712;9.400;2023-04-24T10:15:39;12.30;99.90
5850;DHT22;2951;47.712;9.400;2023-04-24T10:18:07;12.60;99.90
5850;DHT22;2951;47.712;9.400;2023-04-24T10:20:36;12.70;99.90
5850;DHT22;2951;47.712;9.400;2023-04-24T10:23:03;12.80;99.90
5850;DHT22;2951;47.712;9.400;2023-04-24T10:25:31;12.80;99.90
5850;DHT22;2951;47.712;9.400;2023-04-24T10:27:59;12.60;99.90
5850;DHT22;2951;47.712;9.400;2023-04-24T10:30:27;12.40;99.90
5850;DHT22;2951;47.712;9.400;2023-04-24T10:32:54;12.30;99.90
5850;DHT22;2951;47.712;9.400;2023-04-24T10:35:21;12.50;99.90
5850;DHT22;2951;47.712;9.400;2023-04-24T10:37:52;12.50;99.90
5850;DHT22;2951;47.712;9.400;2023-04-24T10:40:29;12.50;99.90
5850;DHT22;2951;47.712;9.400;2023-04-24T10:42:56;12.80;99.90
5850;DHT22;2951;47.712;9.400;2023-04-24T10:45:24;12.70;99.90
5850;DHT22;2951;47.712;9.400;2023-04-24T10:47:58;12.70;99.90
5850;DHT22;2951;47.712;9.400;2023-04-24T10:50:26;12.80;99.90
5850;DHT22;2951;47.712;9.400;2023-04-24T10:52:53;12.80;99.90
5850;DHT22;2951;47.712;9.400;2023-04-24T10:55:41;12.60;99.90
5850;DHT22;2951;47.712;9.400;2023-04-24T10:58:08;12.40;99.90
5850;DHT22;2951;47.712;9.400;2023-04-24T11:00:39;12.30;99.90
5850;DHT22;2951;47.712;9.400;2023-04-24T11:03:40;12.30;99.90
5850;DHT22;2951;47.712;9.400;2023-04-24T11:08:42;12.70;99.90
5850;DHT22;2951;47.712;9.400;2023-04-24T11:11:13;12.70;99.90
5850;DHT22;2951;47.712;9.400;2023-04-24T11:16:35;12.60;99.90
5850;DHT22;2951;47.712;9.400;2023-04-24T11:21:54;13.10;99.90
5850;DHT22;2951;47.712;9.400;2023-04-24T11:24:28;13.20;99.90
5850;DHT22;2951;47.712;9.400;2023-04-24T11:29:48;13.60;99.90
5850;DHT22;2951;47.712;9.400;2023-04-24T11:34:46;13.30;99.90
5850;DHT22;2951;47.712;9.400;2023-04-24T11:37:13;13.60;99.90
5850;DHT22;2951;47.712;9.400;2023-04-24T11:39:40;13.50;99.90
5850;DHT22;2951;47.712;9.400;2023-04-24T11:42:08;14.10;99.90
5850;DHT22;2951;47.712;9.400;2023-04-24T11:44:35;14.30;99.90
5850;DHT22;2951;47.712;9.400;2023-04-24T11:47:05;13.80;99.90
5850;DHT22;2951;47.712;9.400;2023-04-24T11:49:33;13.40;99.90
5850;DHT22;2951;47.712;9.400;2023-04-24T11:52:00;13.60;99.90
5850;DHT22;2951;47.712;9.400;2023-04-24T11:54:27;13.50;99.90
5850;DHT22;2951;47.712;9.400;2023-04-24T11:56:55;13.40;99.90
5850;DHT22;2951;47.712;9.400;2023-04-24T11:59:22;13.10;99.90
5850;DHT22;2951;47.712;9.400;2023-04-24T12:01:49;12.90;99.90
5850;DHT22;2951;47.712;9.400;2023-04-24T12:04:17;12.90;99.90
5850;DHT22;2951;47.712;9.400;2023-04-24T12:07:02;13.00;99.90
5850;DHT22;2951;47.712;9.400;2023-04-24T12:12:13;13.10;99.90
5850;DHT22;2951;47.712;9.400;2023-04-24T12:14:50;13.10;99.90
5850;DHT22;2951;47.712;9.400;2023-04-24T12:17:23;13.70;99.90
5850;DHT22;2951;47.712;9.400;2023-04-24T12:19:51;13.80;99.90
5850;DHT22;2951;47.712;9.400;2023-04-24T12:22:18;13.80;99.90
5850;DHT22;2951;47.712;9.400;2023-04-24T12:27:24;14.10;99.90
5850;DHT22;2951;47.712;9.400;2023-04-24T12:29:52;14.20;99.90
5850;DHT22;2951;47.712;9.400;2023-04-24T12:32:18;13.90;99.90
5850;DHT22;2951;47.712;9.400;2023-04-24T12:34:45;14.40;99.90
5850;DHT22;2951;47.712;9.400;2023-04-24T12:37:12;14.50;99.90
5850;DHT22;2951;47.712;9.400;2023-04-24T12:39:39;14.50;99.90
5850;DHT22;2951;47.712;9.400;2023-04-24T12:42:11;14.50;99.90
5850;DHT22;2951;47.712;9.400;2023-04-24T12:44:37;14.60;99.90
5850;DHT22;2951;47.712;9.400;2023-04-24T12:47:04;14.80;99.90
5850;DHT22;2951;47.712;9.400;2023-04-24T12:49:31;14.50;99.90
5850;DHT22;2951;47.712;9.400;2023-04-24T12:51:58;14.20;99.90
5850;DHT22;2951;47.712;9.400;2023-04-24T12:54:24;13.80;99.90
5850;DHT22;2951;47.712;9.400;2023-04-24T12:56:51;13.60;99.90
5850;DHT22;2951;47.712;9.400;2023-04-24T12:59:18;13.80;99.90
5850;DHT22;2951;47.712;9.400;2023-04-24T13:01:44;14.50;99.90
5850;DHT22;2951;47.712;9.400;2023-04-24T13:04:11;14.30;99.90
5850;DHT22;2951;47.712;9.400;2023-04-24T13:06:38;14.10;99.90
5850;DHT22;2951;47.712;9.400;2023-04-24T13:09:05;14.10;99.90
5850;DHT22;2951;47.712;9.400;2023-04-24T13:11:32;14.00;99.90
5850;DHT22;2951;47.712;9.400;2023-04-24T13:13:59;13.80;99.90
5850;DHT22;2951;47.712;9.400;2023-04-24T13:16:25;14.20;99.90
5850;DHT22;2951;47.712;9.400;2023-04-24T13:18:52;13.90;99.90
5850;DHT22;2951;47.712;9.400;2023-04-24T13:21:19;14.50;99.90
5850;DHT22;2951;47.712;9.400;2023-04-24T13:23:46;14.40;99.90
5850;DHT22;2951;47.712;9.400;2023-04-24T13:26:12;14.50;99.90
5850;DHT22;2951;47.712;9.400;2023-04-24T13:28:39;14.20;99.90
5850;DHT22;2951;47.712;9.400;2023-04-24T13:31:06;14.50;99.90
5850;DHT22;2951;47.712;9.400;2023-04-24T13:33:33;14.60;99.90
5850;DHT22;2951;47.712;9.400;2023-04-24T13:36:00;15.00;99.90
5850;DHT22;2951;47.712;9.400;2023-04-24T13:38:26;15.00;99.90
5850;DHT22;2951;47.712;9.400;2023-04-24T13:40:53;14.80;99.90
5850;DHT22;2951;47.712;9.400;2023-04-24T13:43:20;14.90;99.90
5850;DHT22;2951;47.712;9.400;2023-04-24T13:45:46;14.80;99.90
5850;DHT22;2951;47.712;9.400;2023-04-24T13:48:13;14.70;99.90
5850;DHT22;2951;47.712;9.400;2023-04-24T13:50:42;14.60;99.90
5850;DHT22;2951;47.712;9.400;2023-04-24T13:53:09;15.40;99.90
5850;DHT22;2951;47.712;9.400;2023-04-24T13:55:36;15.60;99.90
5850;DHT22;2951;47.712;9.400;2023-04-24T13:58:02;15.60;99.90
5850;DHT22;2951;47.712;9.400;2023-04-24T14:00:29;15.70;99.90
5850;DHT22;2951;47.712;9.400;2023-04-24T14:02:56;16.10;99.90
5850;DHT22;2951;47.712;9.400;2023-04-24T14:05:23;16.30;99.90
5850;DHT22;2951;47.712;9.400;2023-04-24T14:07:50;16.50;99.90
5850;DHT22;2951;47.712;9.400;2023-04-24T14:10:17;16.60;99.90
5850;DHT22;2951;47.712;9.400;2023-04-24T14:12:44;16.50;99.90
5850;DHT22;2951;47.712;9.400;2023-04-24T14:15:10;16.80;99.90
5850;DHT22;2951;47.712;9.400;2023-04-24T14:17:38;17.10;99.90
5850;DHT22;2951;47.712;9.400;2023-04-24T14:20:05;17.20;99.90
5850;DHT22;2951;47.712;9.400;2023-04-24T14:22:33;16.70;99.90
5850;DHT22;2951;47.712;9.400;2023-04-24T14:25:00;15.70;99.90
5850;DHT22;2951;47.712;9.400;2023-04-24T14:27:26;15.30;99.90
5850;DHT22;2951;47.712;9.400;2023-04-24T14:29:53;15.00;99.90
5850;DHT22;2951;47.712;9.400;2023-04-24T14:32:20;14.80;99.90
5850;DHT22;2951;47.712;9.400;2023-04-24T14:34:46;14.70;99.90
5850;DHT22;2951;47.712;9.400;2023-04-24T14:37:13;14.40;99.90
5850;DHT22;2951;47.712;9.400;2023-04-24T14:39:40;14.20;99.90
5850;DHT22;2951;47.712;9.400;2023-04-24T14:42:07;14.30;99.90
5850;DHT22;2951;47.712;9.400;2023-04-24T14:44:34;14.10;99.90
5850;DHT22;2951;47.712;9.400;2023-04-24T14:47:01;13.90;99.90
5850;DHT22;2951;47.712;9.400;2023-04-24T14:49:28;14.00;99.90
5850;DHT22;2951;47.712;9.400;2023-04-24T14:51:54;14.30;99.90
5850;DHT22;2951;47.712;9.400;2023-04-24T14:54:21;14.70;99.90
5850;DHT22;2951;47.712;9.400;2023-04-24T14:56:49;14.70;99.90
5850;DHT22;2951;47.712;9.400;2023-04-24T14:59:16;14.60;99.90
5850;DHT22;2951;47.712;9.400;2023-04-24T15:01:43;14.60;99.90
5850;DHT22;2951;47.712;9.400;2023-04-24T15:04:10;14.60;99.90
5850;DHT22;2951;47.712;9.400;2023-04-24T15:06:37;14.50;99.90
5850;DHT22;2951;47.712;9.400;2023-04-24T15:09:03;14.50;99.90
5850;DHT22;2951;47.712;9.400;2023-04-24T15:11:30;14.50;99.90
5850;DHT22;2951;47.712;9.400;2023-04-24T15:13:57;14.70;99.90
5850;DHT22;2951;47.712;9.400;2023-04-24T15:16:23;15.60;99.90
5850;DHT22;2951;47.712;9.400;2023-04-24T15:18:50;16.20;99.90
5850;DHT22;2951;47.712;9.400;2023-04-24T15:21:17;15.70;99.90
5850;DHT22;2951;47.712;9.400;2023-04-24T15:23:44;14.90;99.90
5850;DHT22;2951;47.712;9.400;2023-04-24T15:26:11;14.40;99.90
5850;DHT22;2951;47.712;9.400;2023-04-24T15:28:37;14.00;99.90
5850;DHT22;2951;47.712;9.400;2023-04-24T15:31:04;14.10;99.90
5850;DHT22;2951;47.712;9.400;2023-04-24T15:33:31;14.00;99.90
5850;DHT22;2951;47.712;9.400;2023-04-24T15:35:58;13.90;99.90
5850;DHT22;2951;47.712;9.400;2023-04-24T15:38:25;13.80;99.90
5850;DHT22;2951;47.712;9.400;2023-04-24T15:40:52;14.00;99.90
5850;DHT22;2951;47.712;9.400;2023-04-24T15:43:18;13.90;99.90
5850;DHT22;2951;47.712;9.400;2023-04-24T15:45:45;13.80;99.90
5850;DHT22;2951;47.712;9.400;2023-04-24T15:48:11;13.90;99.90
5850;DHT22;2951;47.712;9.400;2023-04-24T15:50:38;14.30;99.90
5850;DHT22;2951;47.712;9.400;2023-04-24T15:53:05;14.90;99.90
5850;DHT22;2951;47.712;9.400;2023-04-24T15:55:32;14.90;99.90
5850;DHT22;2951;47.712;9.400;2023-04-24T15:57:59;15.00;99.90
5850;DHT22;2951;47.712;9.400;2023-04-24T16:00:26;14.90;99.90
5850;DHT22;2951;47.712;9.400;2023-04-24T16:03:01;15.00;99.90
5850;DHT22;2951;47.712;9.400;2023-04-24T16:05:28;14.90;99.90
5850;DHT22;2951;47.712;9.400;2023-04-24T16:07:55;15.40;99.90
5850;DHT22;2951;47.712;9.400;2023-04-24T16:10:22;15.90;99.90
5850;DHT22;2951;47.712;9.400;2023-04-24T16:12:48;15.90;99.90
5850;DHT22;2951;47.712;9.400;2023-04-24T16:15:17;16.30;99.90
5850;DHT22;2951;47.712;9.400;2023-04-24T16:17:43;16.40;99.90
5850;DHT22;2951;47.712;9.400;2023-04-24T16:20:11;16.80;99.90
5850;DHT22;2951;47.712;9.400;2023-04-24T16:22:38;16.50;99.90